• Join FlightAware (Why Join?)
  • Login
  • US Flag 
02:24PM EST


 

Airport Tracker/Info


-or-


 

Live Flight TrackerFlight Track Log ✈ EJA871 ✈ 14-Jan-2014 ✈ KORD - KSMF

Flight Track Log - Related Links

Times and Time Zones

All times are in EST time to prevent confusion due to time zone crossing. See the EJA871 flight status page for this flight to view local times or setup timezone preferences in your user account.

Time Position Orientation Groundspeed Altitude Reporting Facility
EST Latitude Longitude Course Direction KTS MPH feet Rate Location/Type
01:04PM 42.0167 -87.9333 294° West 171 197 1,300  Level Chicago TRACON
01:05PM 42.0333 -87.9833 294° West 184 212 4,600 2,700 Climbing Chicago TRACON
01:06PM 42.0333 -88.0667 270° West 235 270 6,800 3,060 Climbing Chicago TRACON
01:08PM 42.0456 -88.2267 276° West 237 273 13,200 3,300 Climbing Chicago Center
01:09PM 42.0644 -88.3303 284° West 268 308 16,200 2,880 Climbing Chicago Center
01:10PM 42.0853 -88.4328 285° West 280 322 19,200 2,700 Climbing Chicago Center
01:11PM 42.1081 -88.5389 286° West 290 334 21,800 2,160 Climbing Chicago Center
01:12PM 42.1303 -88.6506 285° West 300 345 23,700 2,040 Climbing Chicago Center
01:13PM 42.1558 -88.7708 286° West 321 369 26,000 2,100 Climbing Chicago Center
01:14PM 42.1606 -88.8889 273° West 326 375 28,100 1,980 Climbing Chicago Center
01:15PM 42.1583 -89.0131 269° West 327 376 30,100 1,620 Climbing Chicago Center
01:16PM 42.1547 -89.1347 268° West 327 376 31,500 1,380 Climbing Chicago Center
01:17PM 42.1514 -89.2892 268° West 335 386 33,000 1,260 Climbing Chicago Center
01:18PM 42.1486 -89.4150 268° West 336 387 34,100 1,020 Climbing Chicago Center
01:19PM 42.1447 -89.5403 268° West 335 386 35,200 900 Climbing Chicago Center
01:20PM 42.1408 -89.6617 268° West 327 376 36,000 360 Climbing Chicago Center
01:22PM 42.1364 -89.7889 267° West 337 388 36,000  Level Chicago Center
01:23PM 42.1322 -89.9175 268° West 356 410 36,000  Level Chicago Center
01:24PM 42.1289 -90.0547 268° West 367 422 36,000  Level Chicago Center
01:25PM 42.1233 -90.1983 267° West 381 438 36,000  Level Chicago Center
01:26PM 42.1169 -90.3708 267° West 387 445 36,000  Level Chicago Center
01:27PM 42.1117 -90.5144 267° West 387 445 36,000  Level Chicago Center
01:28PM 42.1069 -90.6600 268° West 389 448 36,000  Level Chicago Center
01:29PM 42.1003 -90.8069 267° West 393 452 36,000  Level Chicago Center
01:30PM 42.0933 -90.9553 266° West 398 458 36,000  Level Chicago Center
01:31PM 42.0867 -91.1058 267° West 403 464 36,000  Level Chicago Center
01:32PM 42.0803 -91.2558 267° West 402 463 36,000  Level Chicago Center
01:33PM 42.0803 -91.4031 270° West 396 456 36,000  Level Chicago Center
01:34PM 42.0842 -91.5800 272° West 395 455 36,000  Level Chicago Center
01:35PM 42.0847 -91.7308 270° West 399 459 36,000  Level Chicago Center
01:36PM 42.0858 -91.8811 271° West 403 464 36,000  Level Chicago Center
01:37PM 42.0872 -92.0294 271° West 399 459 36,000  Level Chicago Center
01:38PM 42.0878 -92.1778 270° West 398 458 36,000  Level Chicago Center
01:39PM 42.0875 -92.3242 270° West 394 453 36,000  Level Chicago Center
01:40PM 42.0883 -92.4725 270° West 396 456 36,000  Level Chicago Center
01:41PM 42.0886 -92.6211 270° West 398 458 36,000  Level Chicago Center
01:42PM 42.0881 -92.7981 270° West 395 455 36,000  Level Chicago Center
01:43PM 42.0886 -92.9472 270° West 399 459 36,000  Level Chicago Center
01:44PM 42.0878 -93.0978 270° West 403 464 36,000  Level Chicago Center
01:45PM 42.0872 -93.2472 270° West 401 461 36,000  Level Chicago Center
01:46PM 42.0867 -93.3978 270° West 404 465 36,000  Level Chicago Center
01:47PM 42.0881 -93.5481 271° West 404 465 36,000  Level Chicago Center
01:48PM 42.1069 -93.7294 278° West 408 470 36,000  Level Minneapolis Center
01:49PM 42.1236 -93.9131 277° West 408 470 36,000  Level Minneapolis Center
01:50PM 42.1383 -94.0644 278° West 409 471 36,000  Level Minneapolis Center
01:51PM 42.1528 -94.2172 277° West 412 474 36,000  Level Minneapolis Center
01:52PM 42.1661 -94.3689 277° West 409 471 36,000  Level Minneapolis Center
01:54PM 42.1797 -94.5206 277° West 408 470 36,000  Level Minneapolis Center
01:55PM 42.1928 -94.6731 277° West 412 474 36,000  Level Minneapolis Center
01:56PM 42.2069 -94.8256 277° West 411 473 36,000  Level Minneapolis Center
01:57PM 42.2208 -95.0072 276° West 408 470 36,000  Level Minneapolis Center
01:58PM 42.2344 -95.1600 277° West 410 472 36,000  Level Minneapolis Center
01:59PM 42.2458 -95.3111 276° West 408 470 36,000  Level Minneapolis Center
02:00PM 42.2589 -95.4617 277° West 406 467 36,000  Level Minneapolis Center
02:01PM 42.2706 -95.6125 276° West 405 466 36,000  Level Minneapolis Center
02:02PM 42.2825 -95.7594 276° West 399 459 36,000  Level Minneapolis Center
02:03PM 42.2939 -95.9097 276° West 402 463 36,000  Level Minneapolis Center
02:04PM 42.3069 -96.0883 276° West 402 463 36,000  Level Minneapolis Center
02:05PM 42.3178 -96.2350 276° West 397 457 36,000  Level Minneapolis Center
02:06PM 42.3289 -96.3856 276° West 400 460 36,000  Level Minneapolis Center
02:07PM 42.3394 -96.5367 275° West 404 465 36,000  Level Minneapolis Center
02:08PM 42.3497 -96.6886 275° West 405 466 36,000  Level Minneapolis Center
02:09PM 42.3600 -96.8408 275° West 408 470 36,000  Level Minneapolis Center
02:10PM 42.3697 -96.9919 275° West 406 467 36,000  Level Minneapolis Center
02:11PM 42.3828 -97.1739 276° West 406 467 36,000  Level Minneapolis Center
02:12PM 42.3922 -97.3286 275° West 410 472 36,000  Level Minneapolis Center
02:13PM 42.4014 -97.4819 275° West 411 473 36,000  Level Minneapolis Center
02:14PM 42.4119 -97.6353 275° West 411 473 36,000  Level Minneapolis Center
02:15PM 42.4203 -97.7911 274° West 414 476 36,000  Level Minneapolis Center
02:16PM 42.4308 -97.9619 275° West 414 476 36,000  Level Minneapolis Center
02:17PM 42.4392 -98.1167 274° West 414 476 36,000  Level Minneapolis Center
02:18PM 42.4481 -98.2733 274° West 417 480 36,000  Level Minneapolis Center
02:19PM 42.4575 -98.4308 275° West 419 482 36,000  Level Minneapolis Center
02:20PM 42.4653 -98.5869 274° West 418 481 36,000  Level Minneapolis Center
02:21PM 42.4644 -98.7431 270° West 417 480 36,000  Level Minneapolis Center
02:22PM 42.4481 -98.9014 262° West 424 488 36,000  Level Minneapolis Center
02:23PM 42.4303 -99.0931 263° West 428 493 36,000  Level Minneapolis Center
02:24PM 42.4161 -99.2219 262° West 430 495 36,000  Level Denver Center
02:25PM 42.3969 -99.4147 262° West 433 498 36,000 240 Level Minneapolis Center
02:26PM 42.3797 -99.5719 262° West 428 493 36,600 600 Climbing Minneapolis Center
02:27PM 42.3700 -99.6647 262° West 423 487 37,200 720 Climbing Denver Center
02:28PM 42.3481 -99.8583 261° West 405 466 38,000 360 Climbing Denver Center
02:29PM 42.3300 -100.0275 262° West 407 468 38,000  Level Denver Center
02:30PM 42.3136 -100.1739 261° West 411 473 38,000  Level Denver Center
02:31PM 42.2967 -100.3236 261° West 418 481 38,000  Level Denver Center
02:32PM 42.2772 -100.4967 261° West 420 483 38,000  Level Denver Center
02:33PM 42.2600 -100.6478 261° West 425 489 38,000  Level Denver Center
02:34PM 42.2397 -100.8231 261° West 425 489 38,000  Level Denver Center
02:35PM 42.2208 -100.9750 261° West 428 493 38,000  Level Denver Center
02:37PM 42.1997 -101.1522 261° West 430 495 38,000  Level Denver Center
02:38PM 42.1819 -101.3044 261° West 431 496 38,000  Level Denver Center
02:39PM 42.1608 -101.4806 261° West 428 493 38,000  Level Denver Center
02:40PM 42.1406 -101.6328 260° West 431 496 38,000  Level Denver Center
02:41PM 42.1186 -101.8083 260° West 429 494 38,000  Level Denver Center
02:42PM 42.0981 -101.9633 260° West 437 503 38,000  Level Denver Center
02:43PM 42.0767 -102.1397 261° West 432 497 38,000  Level Denver Center
02:44PM 42.0553 -102.3028 260° West 434 499 38,000  Level Denver Center
02:45PM 42.0350 -102.4558 260° West 434 499 38,000  Level Denver Center
02:46PM 42.0136 -102.6100 259° West 436 502 38,000  Level Denver Center
02:47PM 41.9897 -102.7919 260° West 441 507 38,000  Level Denver Center
02:48PM 41.9678 -102.9442 259° West 436 502 38,000  Level Denver Center
02:49PM 41.9436 -103.1192 260° West 428 493 38,000  Level Denver Center
02:50PM 41.9233 -103.2694 260° West 428 493 38,000  Level Denver Center
02:51PM 41.8978 -103.4436 259° West 426 490 38,100  Climbing Denver Center
02:52PM 41.8897 -103.5881 266° West 408 470 38,000 -60 Descending Denver Center
02:53PM 41.8861 -103.7289 268° West 397 457 38,000  Level Denver Center
02:54PM 41.8808 -103.8942 268° West 396 456 38,000  Level Denver Center
02:55PM 41.8756 -104.0361 267° West 397 457 38,000  Level Denver Center
02:56PM 41.8708 -104.1556 267° West 399 459 38,000  Level Denver Center
02:57PM 41.8642 -104.3433 267° West 395 455 38,000  Level Denver Center
02:58PM 41.8572 -104.5056 267° West 391 450 38,000  Level Denver Center
02:59PM 41.8519 -104.6464 267° West 393 452 38,000  Level Denver Center
03:00PM 41.8461 -104.7892 267° West 398 458 38,000  Level Denver Center
03:01PM 41.8392 -104.9569 267° West 402 463 38,000  Level Denver Center
03:02PM 41.8331 -105.0992 267° West 400 460 38,000  Level Denver Center
03:03PM 41.8247 -105.2656 266° West 400 460 38,000  Level Denver Center
03:04PM 41.8183 -105.4075 267° West 399 459 38,000  Level Denver Center
03:05PM 41.8117 -105.5489 266° West 398 458 38,000  Level Denver Center
03:06PM 41.8036 -105.7172 266° West 404 465 38,000  Level Denver Center
03:07PM 41.7964 -105.8628 266° West 408 470 38,000  Level Denver Center
03:09PM 41.7878 -106.0333 266° West 411 473 38,000  Level Denver Center
03:10PM 41.7783 -106.2061 266° West 414 476 38,000  Level Denver Center
03:11PM 41.7681 -106.3769 265° West 413 475 38,000  Level Denver Center
03:12PM 41.7608 -106.5250 266° West 412 474 38,000  Level Denver Center
03:13PM 41.7511 -106.6961 266° West 413 475 38,000  Level Denver Center
03:14PM 41.7419 -106.8433 265° West 416 479 38,000  Level Denver Center
03:15PM 41.7319 -107.0136 266° West 413 475 38,000  Level Denver Center
03:16PM 41.7228 -107.1608 265° West 414 476 38,000  Level Denver Center
03:17PM 41.7139 -107.3069 265° West 413 475 38,000  Level Denver Center
03:18PM 41.7028 -107.4764 265° West 410 472 38,000  Level Denver Center
03:19PM 41.6925 -107.6208 265° West 408 470 38,000  Level Denver Center
03:20PM 41.6808 -107.7903 265° West 411 473 38,000  Level Denver Center
03:21PM 41.6725 -107.9133 265° West 415 478 38,000  Level Salt Lake Center
03:22PM 41.6622 -108.0594 265° West 413 475 38,000  Level Salt Lake Center
03:23PM 41.6494 -108.2281 264° West 409 471 38,000  Level Salt Lake Center
03:24PM 41.6386 -108.3742 264° West 413 475 38,000  Level Salt Lake Center
03:25PM 41.6283 -108.5208 265° West 415 478 38,000  Level Salt Lake Center
03:26PM 41.6164 -108.6925 265° West 417 480 38,000  Level Salt Lake Center
03:27PM 41.6042 -108.8411 264° West 421 484 38,000  Level Salt Lake Center
03:28PM 41.5917 -109.0119 264° West 419 482 38,000  Level Salt Lake Center
03:29PM 41.5867 -109.1569 267° West 417 480 38,000  Level Salt Lake Center
03:30PM 41.5822 -109.3258 268° West 415 478 38,000  Level Salt Lake Center
03:31PM 41.5775 -109.4722 268° West 415 478 38,000  Level Salt Lake Center
03:32PM 41.5722 -109.6447 268° West 417 480 38,000  Level Salt Lake Center
03:33PM 41.5669 -109.7911 267° West 416 479 38,000  Level Salt Lake Center
03:34PM 41.5611 -109.9619 267° West 414 476 38,000  Level Salt Lake Center
03:35PM 41.5556 -110.1056 267° West 409 471 38,000  Level Salt Lake Center
03:36PM 41.5497 -110.2736 267° West 406 467 38,000  Level Salt Lake Center
03:37PM 41.5442 -110.4203 267° West 411 473 38,000  Level Salt Lake Center
03:38PM 41.5381 -110.5667 267° West 413 475 38,000  Level Salt Lake Center
03:39PM 41.5317 -110.7372 267° West 413 475 38,000  Level Salt Lake Center
03:40PM 41.5258 -110.8825 267° West 411 473 38,000  Level Salt Lake Center
03:41PM 41.5194 -111.0289 267° West 412 474 38,000  Level Salt Lake Center
03:42PM 41.5111 -111.2131 267° West 416 479 38,000  Level Salt Lake Center
03:43PM 41.5042 -111.3669 267° West 418 481 38,000  Level Salt Lake Center
03:44PM 41.4961 -111.5211 266° West 420 483 38,000  Level Salt Lake Center
03:45PM 41.4897 -111.6758 267° West 421 484 38,000  Level Salt Lake Center
03:46PM 41.4822 -111.8283 266° West 418 481 38,000  Level Salt Lake Center
03:47PM 41.4739 -111.9811 266° West 417 480 38,000  Level Salt Lake Center
03:48PM 41.4644 -112.1661 266° West 421 484 38,000  Level Salt Lake Center
03:49PM 41.4561 -112.3189 266° West 419 482 38,000  Level Salt Lake Center
03:51PM 41.4481 -112.4742 266° West 422 486 38,000  Level Salt Lake Center
03:52PM 41.4386 -112.6303 265° West 426 490 38,000  Level Salt Lake Center
03:53PM 41.4297 -112.7869 266° West 427 491 38,000  Level Salt Lake Center
03:54PM 41.4208 -112.9442 266° West 428 493 38,000  Level Salt Lake Center
03:55PM 41.4114 -113.0997 265° West 424 488 38,000  Level Salt Lake Center
03:56PM 41.3986 -113.2883 265° West 427 491 38,000  Level Salt Lake Center
03:57PM 41.3878 -113.4486 265° West 434 499 38,000  Level Salt Lake Center
03:58PM 41.3786 -113.6064 266° West 431 496 38,000  Level Salt Lake Center
03:59PM 41.3678 -113.7653 265° West 432 497 38,000  Level Salt Lake Center
04:00PM 41.3467 -113.9222 260° West 432 497 38,000  Level Salt Lake Center
04:01PM 41.3053 -114.0767 250° West 440 506 38,000  Level Salt Lake Center
04:02PM 41.2667 -114.2300 252° West 439 505 38,000  Level Salt Lake Center
04:03PM 41.2192 -114.4194 252° West 449 517 38,000  Level Salt Lake Center
04:04PM 41.1828 -114.5703 252° West 438 504 38,000  Level Salt Lake Center
04:05PM 41.1450 -114.7217 252° West 433 498 38,000  Level Salt Lake Center
04:06PM 41.1044 -114.8789 251° West 436 502 38,000  Level Salt Lake Center
04:07PM 41.0700 -115.0272 253° West 440 506 38,000  Level Salt Lake Center
04:08PM 41.0256 -115.1964 251° West 437 503 38,000  Level Salt Lake Center
04:09PM 40.9867 -115.3425 251° West 440 506 38,000  Level Salt Lake Center
04:10PM 40.9503 -115.4883 252° West 438 504 38,000  Level Salt Lake Center
04:11PM 40.9069 -115.6583 251° West 438 504 38,000  Level Salt Lake Center
04:12PM 40.8686 -115.8042 251° West 439 505 38,000  Level Salt Lake Center
04:13PM 40.8236 -115.9736 251° West 439 505 38,000  Level Salt Lake Center
04:14PM 40.7867 -116.1200 252° West 440 506 38,000  Level Salt Lake Center
04:15PM 40.7400 -116.2917 250° West 446 513 38,000  Level Salt Lake Center
04:16PM 40.7006 -116.4381 250° West 444 511 38,000  Level Salt Lake Center
04:17PM 40.6608 -116.5836 250° West 444 511 38,000  Level Salt Lake Center
04:18PM 40.6153 -116.7531 251° West 444 511 38,000  Level Salt Lake Center
04:19PM 40.5758 -116.8967 250° West 443 510 38,000  Level Salt Lake Center
04:20PM 40.5322 -117.0628 251° West 438 504 38,000  Level Salt Lake Center
04:21PM 40.4953 -117.2067 251° West 438 504 38,000  Level Salt Lake Center
04:22PM 40.4508 -117.3742 251° West 437 503 38,000  Level Salt Lake Center
04:23PM 40.4122 -117.5183 251° West 438 504 38,000  Level Salt Lake Center
04:24PM 40.3667 -117.6878 251° West 441 507 38,000  Level Salt Lake Center
04:25PM 40.3281 -117.8300 250° West 437 503 38,000  Level Salt Lake Center
04:26PM 40.2894 -117.9753 251° West 438 504 38,000  Level Salt Lake Center
04:27PM 40.2439 -118.1425 250° West 438 504 38,000  Level Salt Lake Center
04:28PM 40.2039 -118.2850 250° West 437 503 38,000  Level Salt Lake Center
04:29PM 40.1608 -118.4517 251° West 435 501 38,000  Level Salt Lake Center
04:30PM 40.1203 -118.5897 249° West 436 502 38,000  Level Salt Lake Center
04:31PM 40.0606 -118.7297 241° Southwest 441 507 38,000  Level Salt Lake Center
04:33PM 40.0014 -118.8708 241° Southwest 445 512 38,000  Level Salt Lake Center
04:34PM 39.9414 -119.0125 241° Southwest 448 516 38,000  Level Salt Lake Center
04:35PM 39.8686 -119.1814 241° Southwest 449 517 38,000 -540 Level Salt Lake Center
04:36PM 39.8086 -119.3200 241° Southwest 445 512 36,900 -1,440 Descending Salt Lake Center
04:37PM 39.7381 -119.4861 241° Southwest 437 503 34,800 -1,680 Descending Oakland Center
04:38PM 39.6783 -119.6231 240° Southwest 437 503 33,100 -1,800 Descending Oakland Center
04:39PM 39.6200 -119.7583 241° Southwest 433 498 31,200 -1,860 Descending Oakland Center
04:40PM 39.5611 -119.8911 240° Southwest 428 493 29,400 -1,920 Descending Oakland Center
04:41PM 39.4931 -120.0497 241° Southwest 420 483 27,300 -1,800 Descending Oakland Center
04:42PM 39.4433 -120.1603 240° Southwest 419 482 25,800 -1,680 Descending Oakland Center
04:43PM 39.3717 -120.3250 241° Southwest 437 503 23,900 -1,680 Descending Oakland Center
04:44PM 39.3103 -120.4597 240° Southwest 437 503 22,400 -1,500 Descending Oakland Center
04:45PM 39.2525 -120.5903 240° Southwest 423 487 20,900 -1,500 Descending Oakland Center
04:46PM 39.1986 -120.7203 242° Southwest 414 476 19,400 -1,500 Descending Oakland Center
04:47PM 39.1636 -120.8581 252° West 405 466 17,900 -1,260 Descending Oakland Center
04:48PM 39.1250 -120.9911 250° West 400 460 16,900 -1,260 Descending Oakland Center
04:49PM 39.0878 -121.1239 250° West 397 457 15,400 -1,500 Descending Oakland Center
04:50PM 39.0367 -121.2492 242° Southwest 400 460 13,900 -1,500 Descending Oakland Center
04:51PM 38.9842 -121.3711 241° Southwest 395 455 12,400 -1,620 Descending Oakland Center
04:52PM 38.9392 -121.5086 247° West 352 405 10,600 -1,680 Descending Oakland Center
04:53PM 38.9058 -121.6044 246° West 305 351 9,100 -1,500 Descending Oakland Center
04:54PM 38.8756 -121.6964 247° West 286 329 7,600 -1,440 Descending Oakland Center
04:55PM 38.8189 -121.7439 213° Southwest 276 318 6,200 -1,440 Descending Oakland Center
04:56PM 38.7433 -121.7247 169° South 278 320 4,700 -1,500 Descending Oakland Center
04:57PM 38.6708 -121.6997 165° South 273 314 3,200 -1,140 Descending Oakland Center
04:58PM 38.6019 -121.6875 172° South 257 296 2,400 -540 Descending Oakland Center
04:59PM 38.5322 -121.6769 173° South 218 251 2,100 -180 Descending Oakland Center
05:00PM 38.4850 -121.6494 155° Southeast 204 235 2,100 -60 Level Oakland Center
05:01PM 38.5167 -121.6000 51° Northeast 167 192 2,000 -60 Descending Northern Cal TRACON
05:02PM 38.5500 -121.6000 360° North 155 178 2,000 -60 Level Northern Cal TRACON
05:03PM 38.5833 -121.6000 360° North 142 163 1,900 -420 Descending Northern Cal TRACON
05:04PM 38.6167 -121.6000 360° North 135 155 1,200 -720 Descending Northern Cal TRACON
05:05PM 38.6667 -121.6000 360° North 119 137 500 -720 Descending Northern Cal TRACON